Anne Sibum — C4YC2 — position and weather

sailwx.info

Track history (hours):
 
Tides and Currents Weather Stations Pressure Air Temp Water Temp Dewpoint Dewpoint Depression Visibility Wind Speed Wind Dir Waves Ship Positions

Anne Sibum

Last reported at 2014-Jul-29 20:34 UTC. Time now 2014-Jul-29 20:57 UTC.
Position N 53°42' E 009°29'.

Length 151 m; draft 8.5 m.

Type: Ship (hazmat cat A). MMSI: 209322000.

Date/timePositionNaut miles runAvg speedWind from/ knotsBaromVisibWave heightAir tempDewpointWater temp
2014-Jul-29 20:34N 53°42' E 009°29'1211.9
2014-Jul-29 19:33N 53°52' E 009°17'5 5.1
2014-Jul-29 18:33N 53°54' E 009°09'2 2.1
2014-Jul-29 17:34N 53°55' E 009°11'8 8.0
2014-Jul-29 16:33N 54°02' E 009°18'7 7.3
2014-Jul-29 15:34N 54°09' E 009°22'6 5.7
2014-Jul-29 14:31N 54°11' E 009°31'46 1.3
2014-Jul-28 03:33N 54°35' E 010°39'1312.8
2014-Jul-28 02:33N 54°36' E 011°00'1313.0
2014-Jul-28 01:33N 54°34' E 011°22'7 6.8
2014-Jul-28 00:33N 54°30' E 011°32'1313.2
2014-Jul-27 23:33N 54°26' E 011°54'1211.6
2014-Jul-27 22:33N 54°30' E 012°13'1313.1
2014-Jul-27 21:33N 54°41' E 012°26'1313.6
2014-Jul-27 20:33N 54°48' E 012°45'1413.6
2014-Jul-27 19:33N 54°53' E 013°07'1413.9
2014-Jul-27 18:33N 54°57' E 013°30'1413.9
2014-Jul-27 17:34N 55°02' E 013°53'1513.6
2014-Jul-27 16:28N 55°11' E 014°14'1414.7
2014-Jul-27 15:32N 55°22' E 014°29'1414.2
2014-Jul-27 14:33N 55°34' E 014°42'31 2.8
2014-Jul-27 03:29N 56°03' E 014°59'3712.6
2014-Jul-27 00:33N 55°58' E 016°04'1913.8
2014-Jul-26 23:10N 56°06' E 016°35'813.4
2014-Jul-26 22:33N 56°12' E 016°46'1313.5
2014-Jul-26 21:33N 56°24' E 016°55'1413.7
2014-Jul-26 20:33N 56°37' E 017°04'1413.8
2014-Jul-26 19:33N 56°50' E 017°13'1413.7
2014-Jul-26 18:33N 57°02' E 017°22'1413.9
2014-Jul-26 17:33N 57°15' E 017°31'1414.1
2014-Jul-26 16:33N 57°28' E 017°41'1414.2
2014-Jul-26 15:34N 57°41' E 017°53'4914.3
2014-Jul-26 12:07N 58°23' E 018°42'2214.1
2014-Jul-26 10:33N 58°42' E 019°04'1414.0
2014-Jul-26 09:33N 58°53' E 019°19'1413.7
2014-Jul-26 08:33N 59°05' E 019°33'1414.0
2014-Jul-26 07:32N 59°17' E 019°48'1414.2
2014-Jul-26 06:33N 59°29' E 020°03'4613.6
2014-Jul-26 03:13N 60°05' E 019°09'6811.9
2014-Jul-25 21:33N 60°59' E 020°30'21 1.3
2014-Jul-25 05:20N 61°08' E 021°10'2212.3
2014-Jul-25 03:33N 61°03' E 020°25'9112.9
2014-Jul-24 20:30N 60°44' E 017°22'135 4.7
2014-Jul-23 15:33N 59°32' E 021°12'1212.4
2014-Jul-23 14:33N 59°30' E 021°36'1212.4
2014-Jul-23 13:33N 59°30' E 022°00'1712.5
2014-Jul-23 12:10N 59°31' E 022°35'2312.7
2014-Jul-23 10:22N 59°37' E 023°18'1312.7
2014-Jul-23 09:18N 59°41' E 023°43'1212.6
2014-Jul-23 08:21N 59°44' E 024°06'3712.6
2014-Jul-23 05:26N 59°53' E 025°17'1112.8
2014-Jul-23 04:33N 59°55' E 025°39'1312.6
2014-Jul-23 03:33N 59°58' E 026°04'1313.0
2014-Jul-23 02:33N 60°01' E 026°29'1212.3
2014-Jul-23 01:33N 60°00' E 026°53'1212.0
2014-Jul-23 00:33N 60°03' E 027°16'8611.6
2014-Jul-22 17:10N 59°54' E 030°07'3 0.2
2014-Jul-22 00:14N 59°52' E 030°12'108 5.2
2014-Jul-21 03:28N 59°59' E 026°38'1513.9
2014-Jul-21 02:26N 59°55' E 026°10'1213.8
2014-Jul-21 01:32N 59°52' E 025°46'1313.8
2014-Jul-21 00:33N 59°49' E 025°20'1413.8
2014-Jul-20 23:34N 59°46' E 024°54'1413.8
2014-Jul-20 22:33N 59°44' E 024°26'1413.8
2014-Jul-20 21:33N 59°39' E 024°00'1413.8
2014-Jul-20 20:33N 59°34' E 023°35'1413.8
2014-Jul-20 19:33N 59°30' E 023°09'1614.0
2014-Jul-20 18:26N 59°25' E 022°40'3913.5
2014-Jul-20 15:33N 58°58' E 021°44'4413.8
2014-Jul-20 12:22N 58°16' E 021°19'  
Track history (hours):
 
Tides and Currents Weather Stations Pressure Air Temp Water Temp Dewpoint Dewpoint Depression Visibility Wind Speed Wind Dir Waves Ship Positions

Anne Sibum

Last reported at 2014-Jul-29 20:34 UTC. Time now 2014-Jul-29 20:57 UTC.
Position N 53°42' E 009°29'.

Length 151 m; draft 8.5 m.

Type: Ship (hazmat cat A). MMSI: 209322000.

Date/timePositionNaut miles runAvg speedWind from/ knotsBaromVisibWave heightAir tempDewpointWater temp
2014-Jul-29 20:34N 53°42' E 009°29'1211.9
2014-Jul-29 19:33N 53°52' E 009°17'5 5.1
2014-Jul-29 18:33N 53°54' E 009°09'2 2.1
2014-Jul-29 17:34N 53°55' E 009°11'8 8.0
2014-Jul-29 16:33N 54°02' E 009°18'7 7.3
2014-Jul-29 15:34N 54°09' E 009°22'6 5.7
2014-Jul-29 14:31N 54°11' E 009°31'46 1.3
2014-Jul-28 03:33N 54°35' E 010°39'1312.8
2014-Jul-28 02:33N 54°36' E 011°00'1313.0
2014-Jul-28 01:33N 54°34' E 011°22'7 6.8
2014-Jul-28 00:33N 54°30' E 011°32'1313.2
2014-Jul-27 23:33N 54°26' E 011°54'1211.6
2014-Jul-27 22:33N 54°30' E 012°13'1313.1
2014-Jul-27 21:33N 54°41' E 012°26'1313.6
2014-Jul-27 20:33N 54°48' E 012°45'1413.6
2014-Jul-27 19:33N 54°53' E 013°07'1413.9
2014-Jul-27 18:33N 54°57' E 013°30'1413.9
2014-Jul-27 17:34N 55°02' E 013°53'1513.6
2014-Jul-27 16:28N 55°11' E 014°14'1414.7
2014-Jul-27 15:32N 55°22' E 014°29'1414.2
2014-Jul-27 14:33N 55°34' E 014°42'31 2.8
2014-Jul-27 03:29N 56°03' E 014°59'3712.6
2014-Jul-27 00:33N 55°58' E 016°04'1913.8
2014-Jul-26 23:10N 56°06' E 016°35'813.4
2014-Jul-26 22:33N 56°12' E 016°46'1313.5
2014-Jul-26 21:33N 56°24' E 016°55'1413.7
2014-Jul-26 20:33N 56°37' E 017°04'1413.8
2014-Jul-26 19:33N 56°50' E 017°13'1413.7
2014-Jul-26 18:33N 57°02' E 017°22'1413.9
2014-Jul-26 17:33N 57°15' E 017°31'1414.1
2014-Jul-26 16:33N 57°28' E 017°41'1414.2
2014-Jul-26 15:34N 57°41' E 017°53'4914.3
2014-Jul-26 12:07N 58°23' E 018°42'2214.1
2014-Jul-26 10:33N 58°42' E 019°04'1414.0
2014-Jul-26 09:33N 58°53' E 019°19'1413.7
2014-Jul-26 08:33N 59°05' E 019°33'1414.0
2014-Jul-26 07:32N 59°17' E 019°48'1414.2
2014-Jul-26 06:33N 59°29' E 020°03'4613.6
2014-Jul-26 03:13N 60°05' E 019°09'6811.9
2014-Jul-25 21:33N 60°59' E 020°30'21 1.3
2014-Jul-25 05:20N 61°08' E 021°10'2212.3
2014-Jul-25 03:33N 61°03' E 020°25'9112.9
2014-Jul-24 20:30N 60°44' E 017°22'135 4.7
2014-Jul-23 15:33N 59°32' E 021°12'1212.4
2014-Jul-23 14:33N 59°30' E 021°36'1212.4
2014-Jul-23 13:33N 59°30' E 022°00'1712.5
2014-Jul-23 12:10N 59°31' E 022°35'2312.7
2014-Jul-23 10:22N 59°37' E 023°18'1312.7
2014-Jul-23 09:18N 59°41' E 023°43'1212.6
2014-Jul-23 08:21N 59°44' E 024°06'3712.6
2014-Jul-23 05:26N 59°53' E 025°17'1112.8
2014-Jul-23 04:33N 59°55' E 025°39'1312.6
2014-Jul-23 03:33N 59°58' E 026°04'1313.0
2014-Jul-23 02:33N 60°01' E 026°29'1212.3
2014-Jul-23 01:33N 60°00' E 026°53'1212.0
2014-Jul-23 00:33N 60°03' E 027°16'8611.6
2014-Jul-22 17:10N 59°54' E 030°07'3 0.2
2014-Jul-22 00:14N 59°52' E 030°12'108 5.2
2014-Jul-21 03:28N 59°59' E 026°38'1513.9
2014-Jul-21 02:26N 59°55' E 026°10'1213.8
2014-Jul-21 01:32N 59°52' E 025°46'1313.8
2014-Jul-21 00:33N 59°49' E 025°20'1413.8
2014-Jul-20 23:34N 59°46' E 024°54'1413.8
2014-Jul-20 22:33N 59°44' E 024°26'1413.8
2014-Jul-20 21:33N 59°39' E 024°00'1413.8
2014-Jul-20 20:33N 59°34' E 023°35'1413.8
2014-Jul-20 19:33N 59°30' E 023°09'1614.0
2014-Jul-20 18:26N 59°25' E 022°40'3913.5
2014-Jul-20 15:33N 58°58' E 021°44'4413.8
2014-Jul-20 12:22N 58°16' E 021°19'  

Dump ship's entire track history